sensor_id;sensor_type;location;lat;lon;timestamp;pressure;altitude;pressure_sealevel;temperature;humidity
55277;BME280;41136;51.478;-2.610;2023-11-19T00:01:42;99900.43;;;12.76;100.00
55277;BME280;41136;51.478;-2.610;2023-11-19T00:04:07;99903.84;;;12.08;100.00
55277;BME280;41136;51.478;-2.610;2023-11-19T00:06:33;99902.00;;;12.30;100.00
55277;BME280;41136;51.478;-2.610;2023-11-19T00:08:58;99900.16;;;12.48;100.00
55277;BME280;41136;51.478;-2.610;2023-11-19T00:11:23;99898.82;;;12.66;100.00
55277;BME280;41136;51.478;-2.610;2023-11-19T00:13:48;99905.64;;;13.27;100.00
55277;BME280;41136;51.478;-2.610;2023-11-19T00:16:14;99906.29;;;12.72;100.00
55277;BME280;41136;51.478;-2.610;2023-11-19T00:18:39;99898.49;;;12.50;100.00
55277;BME280;41136;51.478;-2.610;2023-11-19T00:21:05;99887.14;;;12.96;100.00
55277;BME280;41136;51.478;-2.610;2023-11-19T00:23:30;99885.78;;;12.49;100.00
55277;BME280;41136;51.478;-2.610;2023-11-19T00:25:56;99887.53;;;12.47;100.00
55277;BME280;41136;51.478;-2.610;2023-11-19T00:28:22;99882.89;;;12.32;100.00
55277;BME280;41136;51.478;-2.610;2023-11-19T00:30:47;99876.71;;;12.17;100.00
55277;BME280;41136;51.478;-2.610;2023-11-19T00:33:12;99871.01;;;12.59;100.00
55277;BME280;41136;51.478;-2.610;2023-11-19T00:35:38;99870.80;;;12.51;100.00
55277;BME280;41136;51.478;-2.610;2023-11-19T00:38:03;99867.53;;;11.94;100.00
55277;BME280;41136;51.478;-2.610;2023-11-19T00:40:29;99875.22;;;11.87;100.00
55277;BME280;41136;51.478;-2.610;2023-11-19T00:42:54;99873.27;;;12.61;100.00
55277;BME280;41136;51.478;-2.610;2023-11-19T00:45:19;99874.33;;;12.24;100.00
55277;BME280;41136;51.478;-2.610;2023-11-19T00:47:45;99874.14;;;12.06;100.00
55277;BME280;41136;51.478;-2.610;2023-11-19T00:50:10;99871.53;;;12.73;100.00
55277;BME280;41136;51.478;-2.610;2023-11-19T00:52:35;99871.99;;;12.21;100.00
55277;BME280;41136;51.478;-2.610;2023-11-19T00:55:01;99871.88;;;12.14;100.00
55277;BME280;41136;51.478;-2.610;2023-11-19T00:57:27;99865.03;;;11.73;100.00
55277;BME280;41136;51.478;-2.610;2023-11-19T00:59:52;99858.92;;;11.96;100.00
55277;BME280;41136;51.478;-2.610;2023-11-19T01:02:18;99855.70;;;11.33;100.00
55277;BME280;41136;51.478;-2.610;2023-11-19T01:04:44;99850.17;;;11.68;100.00
55277;BME280;41136;51.478;-2.610;2023-11-19T01:07:09;99848.10;;;11.61;100.00
55277;BME280;41136;51.478;-2.610;2023-11-19T01:09:34;99844.61;;;11.29;100.00
55277;BME280;41136;51.478;-2.610;2023-11-19T01:14:58;99835.06;;;11.59;100.00
55277;BME280;41136;51.478;-2.610;2023-11-19T01:17:24;99839.16;;;11.43;100.00
55277;BME280;41136;51.478;-2.610;2023-11-19T01:19:50;99845.33;;;11.56;100.00
55277;BME280;41136;51.478;-2.610;2023-11-19T01:22:15;99840.09;;;11.56;100.00
55277;BME280;41136;51.478;-2.610;2023-11-19T01:24:40;99837.62;;;12.34;100.00
55277;BME280;41136;51.478;-2.610;2023-11-19T01:27:06;99833.08;;;11.88;100.00
55277;BME280;41136;51.478;-2.610;2023-11-19T01:29:31;99814.80;;;11.84;100.00
55277;BME280;41136;51.478;-2.610;2023-11-19T01:31:56;99823.22;;;11.49;100.00
55277;BME280;41136;51.478;-2.610;2023-11-19T01:34:22;99834.95;;;11.44;100.00
55277;BME280;41136;51.478;-2.610;2023-11-19T01:36:47;99844.89;;;11.86;100.00
55277;BME280;41136;51.478;-2.610;2023-11-19T01:39:12;99835.38;;;11.51;100.00
55277;BME280;41136;51.478;-2.610;2023-11-19T01:41:38;99830.84;;;11.47;100.00
55277;BME280;41136;51.478;-2.610;2023-11-19T01:44:04;99821.49;;;12.13;100.00
55277;BME280;41136;51.478;-2.610;2023-11-19T01:46:29;99812.47;;;11.17;100.00
55277;BME280;41136;51.478;-2.610;2023-11-19T01:48:54;99800.99;;;12.15;100.00
55277;BME280;41136;51.478;-2.610;2023-11-19T01:51:21;99804.82;;;11.32;100.00
55277;BME280;41136;51.478;-2.610;2023-11-19T01:53:44;99807.64;;;11.41;100.00
55277;BME280;41136;51.478;-2.610;2023-11-19T01:56:13;99793.81;;;11.19;100.00
55277;BME280;41136;51.478;-2.610;2023-11-19T01:58:35;99791.29;;;12.03;100.00
55277;BME280;41136;51.478;-2.610;2023-11-19T02:01:00;99788.64;;;11.99;100.00
55277;BME280;41136;51.478;-2.610;2023-11-19T02:03:26;99781.92;;;12.03;100.00
55277;BME280;41136;51.478;-2.610;2023-11-19T02:05:51;99787.49;;;11.94;100.00
55277;BME280;41136;51.478;-2.610;2023-11-19T02:08:17;99796.24;;;12.26;100.00
55277;BME280;41136;51.478;-2.610;2023-11-19T02:10:42;99798.54;;;11.18;100.00
55277;BME280;41136;51.478;-2.610;2023-11-19T02:13:08;99794.50;;;11.26;100.00
55277;BME280;41136;51.478;-2.610;2023-11-19T02:15:34;99802.00;;;12.06;100.00
55277;BME280;41136;51.478;-2.610;2023-11-19T02:20:25;99805.36;;;11.42;100.00
55277;BME280;41136;51.478;-2.610;2023-11-19T02:22:50;99799.35;;;11.11;100.00
55277;BME280;41136;51.478;-2.610;2023-11-19T02:25:23;99800.19;;;11.33;100.00
55277;BME280;41136;51.478;-2.610;2023-11-19T02:27:47;99798.67;;;10.77;100.00
55277;BME280;41136;51.478;-2.610;2023-11-19T02:30:08;99796.13;;;11.35;100.00
55277;BME280;41136;51.478;-2.610;2023-11-19T02:32:32;99796.42;;;11.84;100.00
55277;BME280;41136;51.478;-2.610;2023-11-19T02:34:57;99801.42;;;11.14;100.00
55277;BME280;41136;51.478;-2.610;2023-11-19T02:37:22;99808.83;;;10.76;100.00
55277;BME280;41136;51.478;-2.610;2023-11-19T02:39:47;99805.49;;;11.00;100.00
55277;BME280;41136;51.478;-2.610;2023-11-19T02:42:12;99797.85;;;11.30;100.00
55277;BME280;41136;51.478;-2.610;2023-11-19T02:44:38;99806.05;;;10.91;100.00
55277;BME280;41136;51.478;-2.610;2023-11-19T02:47:05;99801.87;;;11.28;100.00
55277;BME280;41136;51.478;-2.610;2023-11-19T02:49:28;99803.92;;;11.03;100.00
55277;BME280;41136;51.478;-2.610;2023-11-19T02:51:54;99797.63;;;11.06;100.00
55277;BME280;41136;51.478;-2.610;2023-11-19T02:54:19;99789.62;;;11.18;100.00
55277;BME280;41136;51.478;-2.610;2023-11-19T02:56:45;99786.37;;;10.89;100.00
55277;BME280;41136;51.478;-2.610;2023-11-19T02:59:10;99780.18;;;11.02;100.00
55277;BME280;41136;51.478;-2.610;2023-11-19T03:01:35;99789.67;;;12.23;100.00
55277;BME280;41136;51.478;-2.610;2023-11-19T03:04:01;99781.59;;;11.30;100.00
55277;BME280;41136;51.478;-2.610;2023-11-19T03:06:26;99783.12;;;11.44;100.00
55277;BME280;41136;51.478;-2.610;2023-11-19T03:08:51;99780.52;;;12.06;100.00
55277;BME280;41136;51.478;-2.610;2023-11-19T03:11:16;99778.13;;;11.27;100.00
55277;BME280;41136;51.478;-2.610;2023-11-19T03:13:41;99771.07;;;11.11;100.00
55277;BME280;41136;51.478;-2.610;2023-11-19T03:16:08;99777.72;;;11.37;100.00
55277;BME280;41136;51.478;-2.610;2023-11-19T03:18:33;99770.36;;;11.34;100.00
55277;BME280;41136;51.478;-2.610;2023-11-19T03:20:58;99772.46;;;11.66;100.00
55277;BME280;41136;51.478;-2.610;2023-11-19T03:23:24;99775.04;;;11.53;100.00
55277;BME280;41136;51.478;-2.610;2023-11-19T03:25:50;99781.96;;;11.88;100.00
55277;BME280;41136;51.478;-2.610;2023-11-19T03:28:15;99785.05;;;11.47;100.00
55277;BME280;41136;51.478;-2.610;2023-11-19T03:30:40;99792.83;;;11.90;100.00
55277;BME280;41136;51.478;-2.610;2023-11-19T03:33:06;99796.85;;;11.63;100.00
55277;BME280;41136;51.478;-2.610;2023-11-19T03:35:31;99801.27;;;11.23;100.00
55277;BME280;41136;51.478;-2.610;2023-11-19T03:37:56;99805.22;;;10.92;100.00
55277;BME280;41136;51.478;-2.610;2023-11-19T03:40:22;99803.91;;;11.28;100.00
55277;BME280;41136;51.478;-2.610;2023-11-19T03:42:47;99806.21;;;11.67;100.00
55277;BME280;41136;51.478;-2.610;2023-11-19T03:45:13;99809.09;;;12.00;100.00
55277;BME280;41136;51.478;-2.610;2023-11-19T03:47:38;99815.21;;;11.70;100.00
55277;BME280;41136;51.478;-2.610;2023-11-19T03:50:04;99828.83;;;12.50;100.00
55277;BME280;41136;51.478;-2.610;2023-11-19T03:52:29;99824.92;;;12.37;100.00
55277;BME280;41136;51.478;-2.610;2023-11-19T03:54:54;99827.88;;;11.86;100.00
55277;BME280;41136;51.478;-2.610;2023-11-19T03:57:19;99837.61;;;11.50;100.00
55277;BME280;41136;51.478;-2.610;2023-11-19T03:59:44;99821.43;;;10.72;100.00
55277;BME280;41136;51.478;-2.610;2023-11-19T04:02:10;99818.89;;;10.77;100.00
55277;BME280;41136;51.478;-2.610;2023-11-19T04:13:26;99796.00;;;10.52;100.00
55277;BME280;41136;51.478;-2.610;2023-11-19T04:15:52;99782.12;;;10.06;100.00
55277;BME280;41136;51.478;-2.610;2023-11-19T04:18:17;99785.66;;;10.28;100.00
55277;BME280;41136;51.478;-2.610;2023-11-19T04:20:47;99782.99;;;10.54;100.00
55277;BME280;41136;51.478;-2.610;2023-11-19T04:23:08;99788.96;;;11.12;100.00
55277;BME280;41136;51.478;-2.610;2023-11-19T04:25:33;99786.61;;;10.82;100.00
55277;BME280;41136;51.478;-2.610;2023-11-19T04:27:58;99788.42;;;10.83;100.00
55277;BME280;41136;51.478;-2.610;2023-11-19T04:30:24;99781.40;;;10.46;100.00
55277;BME280;41136;51.478;-2.610;2023-11-19T04:32:49;99777.37;;;11.22;100.00
55277;BME280;41136;51.478;-2.610;2023-11-19T04:35:14;99776.97;;;10.56;100.00
55277;BME280;41136;51.478;-2.610;2023-11-19T04:37:39;99773.03;;;10.31;100.00
55277;BME280;41136;51.478;-2.610;2023-11-19T04:40:06;99771.94;;;10.38;100.00
55277;BME280;41136;51.478;-2.610;2023-11-19T04:42:30;99770.69;;;10.43;100.00
55277;BME280;41136;51.478;-2.610;2023-11-19T04:44:55;99760.50;;;10.01;100.00
55277;BME280;41136;51.478;-2.610;2023-11-19T04:47:22;99771.31;;;9.32;100.00
55277;BME280;41136;51.478;-2.610;2023-11-19T04:49:46;99763.90;;;9.62;100.00
55277;BME280;41136;51.478;-2.610;2023-11-19T04:52:11;99749.94;;;9.84;100.00
55277;BME280;41136;51.478;-2.610;2023-11-19T04:54:40;99757.62;;;10.20;100.00
55277;BME280;41136;51.478;-2.610;2023-11-19T04:57:02;99753.65;;;10.38;100.00
55277;BME280;41136;51.478;-2.610;2023-11-19T04:59:27;99750.35;;;10.99;100.00
55277;BME280;41136;51.478;-2.610;2023-11-19T05:01:53;99747.79;;;11.38;100.00
55277;BME280;41136;51.478;-2.610;2023-11-19T05:04:18;99733.66;;;11.14;100.00
55277;BME280;41136;51.478;-2.610;2023-11-19T05:06:43;99722.94;;;11.37;100.00
55277;BME280;41136;51.478;-2.610;2023-11-19T05:09:09;99718.33;;;10.95;100.00
55277;BME280;41136;51.478;-2.610;2023-11-19T05:11:35;99717.85;;;10.67;100.00
55277;BME280;41136;51.478;-2.610;2023-11-19T05:14:01;99721.15;;;11.16;100.00
55277;BME280;41136;51.478;-2.610;2023-11-19T05:16:25;99716.95;;;11.33;100.00
55277;BME280;41136;51.478;-2.610;2023-11-19T05:18:51;99709.63;;;11.33;100.00
55277;BME280;41136;51.478;-2.610;2023-11-19T05:21:16;99710.68;;;10.87;100.00
55277;BME280;41136;51.478;-2.610;2023-11-19T05:23:42;99715.92;;;11.25;100.00
55277;BME280;41136;51.478;-2.610;2023-11-19T05:26:08;99715.17;;;10.76;100.00
55277;BME280;41136;51.478;-2.610;2023-11-19T05:28:33;99719.01;;;10.55;100.00
55277;BME280;41136;51.478;-2.610;2023-11-19T05:30:58;99716.89;;;11.25;100.00
55277;BME280;41136;51.478;-2.610;2023-11-19T05:33:23;99717.54;;;10.50;100.00
55277;BME280;41136;51.478;-2.610;2023-11-19T05:35:48;99721.08;;;10.16;100.00
55277;BME280;41136;51.478;-2.610;2023-11-19T05:38:14;99722.11;;;10.64;100.00
55277;BME280;41136;51.478;-2.610;2023-11-19T05:40:39;99722.27;;;10.70;100.00
55277;BME280;41136;51.478;-2.610;2023-11-19T05:43:06;99704.72;;;10.73;100.00
55277;BME280;41136;51.478;-2.610;2023-11-19T05:45:31;99715.52;;;10.76;100.00
55277;BME280;41136;51.478;-2.610;2023-11-19T05:47:56;99703.75;;;10.50;100.00
55277;BME280;41136;51.478;-2.610;2023-11-19T05:50:22;99710.27;;;10.72;100.00
55277;BME280;41136;51.478;-2.610;2023-11-19T05:52:47;99713.55;;;10.47;100.00
55277;BME280;41136;51.478;-2.610;2023-11-19T05:55:13;99721.18;;;9.88;100.00
55277;BME280;41136;51.478;-2.610;2023-11-19T05:57:39;99715.92;;;11.38;100.00
55277;BME280;41136;51.478;-2.610;2023-11-19T06:00:06;99718.43;;;10.67;100.00
55277;BME280;41136;51.478;-2.610;2023-11-19T06:02:30;99721.35;;;10.57;100.00
55277;BME280;41136;51.478;-2.610;2023-11-19T06:04:55;99718.14;;;10.82;100.00
55277;BME280;41136;51.478;-2.610;2023-11-19T06:07:21;99731.34;;;10.38;100.00
55277;BME280;41136;51.478;-2.610;2023-11-19T06:09:45;99747.28;;;11.13;100.00
55277;BME280;41136;51.478;-2.610;2023-11-19T06:12:11;99747.49;;;10.10;100.00
55277;BME280;41136;51.478;-2.610;2023-11-19T06:14:37;99741.71;;;10.57;100.00
55277;BME280;41136;51.478;-2.610;2023-11-19T06:17:03;99757.10;;;11.02;100.00
55277;BME280;41136;51.478;-2.610;2023-11-19T06:19:28;99753.03;;;10.56;100.00
55277;BME280;41136;51.478;-2.610;2023-11-19T06:21:53;99761.19;;;10.04;100.00
55277;BME280;41136;51.478;-2.610;2023-11-19T06:24:18;99769.67;;;9.76;100.00
55277;BME280;41136;51.478;-2.610;2023-11-19T06:26:44;99781.19;;;9.76;100.00
55277;BME280;41136;51.478;-2.610;2023-11-19T06:29:09;99786.91;;;10.01;100.00
55277;BME280;41136;51.478;-2.610;2023-11-19T06:31:34;99769.59;;;9.85;100.00
55277;BME280;41136;51.478;-2.610;2023-11-19T06:34:00;99766.56;;;10.33;100.00
55277;BME280;41136;51.478;-2.610;2023-11-19T06:36:25;99766.07;;;10.22;100.00
55277;BME280;41136;51.478;-2.610;2023-11-19T06:38:50;99774.68;;;10.68;100.00
55277;BME280;41136;51.478;-2.610;2023-11-19T06:41:16;99773.72;;;10.83;100.00
55277;BME280;41136;51.478;-2.610;2023-11-19T06:43:41;99773.08;;;10.55;100.00
55277;BME280;41136;51.478;-2.610;2023-11-19T06:46:15;99775.89;;;10.99;100.00
55277;BME280;41136;51.478;-2.610;2023-11-19T06:48:32;99770.85;;;10.67;100.00
55277;BME280;41136;51.478;-2.610;2023-11-19T06:50:57;99769.54;;;10.64;100.00
55277;BME280;41136;51.478;-2.610;2023-11-19T06:53:22;99765.63;;;10.58;100.00
55277;BME280;41136;51.478;-2.610;2023-11-19T06:55:47;99762.49;;;10.54;100.00
55277;BME280;41136;51.478;-2.610;2023-11-19T06:58:13;99760.14;;;10.63;100.00
55277;BME280;41136;51.478;-2.610;2023-11-19T07:00:39;99758.94;;;11.62;100.00
55277;BME280;41136;51.478;-2.610;2023-11-19T07:03:04;99751.99;;;10.95;100.00
55277;BME280;41136;51.478;-2.610;2023-11-19T07:05:29;99753.99;;;11.21;100.00
55277;BME280;41136;51.478;-2.610;2023-11-19T07:07:55;99754.38;;;11.54;100.00
55277;BME280;41136;51.478;-2.610;2023-11-19T07:10:20;99755.39;;;10.97;100.00
55277;BME280;41136;51.478;-2.610;2023-11-19T07:12:45;99752.77;;;11.08;100.00
55277;BME280;41136;51.478;-2.610;2023-11-19T07:15:10;99759.14;;;10.71;100.00
55277;BME280;41136;51.478;-2.610;2023-11-19T07:17:36;99758.52;;;11.16;100.00
55277;BME280;41136;51.478;-2.610;2023-11-19T07:20:01;99762.66;;;11.06;100.00
55277;BME280;41136;51.478;-2.610;2023-11-19T07:22:26;99776.96;;;10.60;100.00
55277;BME280;41136;51.478;-2.610;2023-11-19T07:24:51;99773.28;;;10.58;100.00
55277;BME280;41136;51.478;-2.610;2023-11-19T07:27:17;99767.26;;;10.65;100.00
55277;BME280;41136;51.478;-2.610;2023-11-19T07:29:43;99769.33;;;11.40;100.00
55277;BME280;41136;51.478;-2.610;2023-11-19T07:32:07;99776.82;;;10.80;100.00
55277;BME280;41136;51.478;-2.610;2023-11-19T07:34:34;99780.53;;;11.09;100.00
55277;BME280;41136;51.478;-2.610;2023-11-19T07:36:58;99783.77;;;10.70;100.00
55277;BME280;41136;51.478;-2.610;2023-11-19T07:39:24;99781.95;;;11.23;100.00
55277;BME280;41136;51.478;-2.610;2023-11-19T07:41:49;99780.18;;;11.50;100.00
55277;BME280;41136;51.478;-2.610;2023-11-19T07:44:15;99778.81;;;11.27;100.00
55277;BME280;41136;51.478;-2.610;2023-11-19T07:46:41;99776.70;;;10.83;100.00
55277;BME280;41136;51.478;-2.610;2023-11-19T07:49:06;99779.05;;;11.17;100.00
55277;BME280;41136;51.478;-2.610;2023-11-19T07:51:31;99772.61;;;10.50;100.00
55277;BME280;41136;51.478;-2.610;2023-11-19T07:53:57;99763.93;;;11.03;100.00
55277;BME280;41136;51.478;-2.610;2023-11-19T07:56:22;99765.24;;;10.39;100.00
55277;BME280;41136;51.478;-2.610;2023-11-19T07:58:47;99755.91;;;11.16;100.00
55277;BME280;41136;51.478;-2.610;2023-11-19T08:01:13;99749.63;;;11.30;100.00
55277;BME280;41136;51.478;-2.610;2023-11-19T08:03:38;99751.26;;;10.79;100.00
55277;BME280;41136;51.478;-2.610;2023-11-19T08:06:04;99755.81;;;11.27;100.00
55277;BME280;41136;51.478;-2.610;2023-11-19T08:08:28;99754.88;;;10.82;100.00
55277;BME280;41136;51.478;-2.610;2023-11-19T08:10:54;99752.53;;;11.24;100.00
55277;BME280;41136;51.478;-2.610;2023-11-19T08:13:19;99753.52;;;10.71;100.00
55277;BME280;41136;51.478;-2.610;2023-11-19T08:15:45;99752.56;;;11.12;100.00
55277;BME280;41136;51.478;-2.610;2023-11-19T08:18:11;99755.66;;;10.93;100.00
55277;BME280;41136;51.478;-2.610;2023-11-19T08:20:36;99758.30;;;11.31;100.00
55277;BME280;41136;51.478;-2.610;2023-11-19T08:23:02;99761.93;;;11.31;100.00
55277;BME280;41136;51.478;-2.610;2023-11-19T08:25:27;99760.22;;;10.63;100.00
55277;BME280;41136;51.478;-2.610;2023-11-19T08:27:53;99774.42;;;11.45;100.00
55277;BME280;41136;51.478;-2.610;2023-11-19T08:30:19;99781.73;;;10.78;100.00
55277;BME280;41136;51.478;-2.610;2023-11-19T08:32:43;99785.35;;;11.07;100.00
55277;BME280;41136;51.478;-2.610;2023-11-19T08:35:09;99784.33;;;11.14;100.00
55277;BME280;41136;51.478;-2.610;2023-11-19T08:37:34;99768.47;;;10.72;100.00
55277;BME280;41136;51.478;-2.610;2023-11-19T08:39:59;99762.25;;;11.35;100.00
55277;BME280;41136;51.478;-2.610;2023-11-19T08:42:24;99757.82;;;11.15;100.00
55277;BME280;41136;51.478;-2.610;2023-11-19T08:44:50;99758.56;;;10.99;100.00
55277;BME280;41136;51.478;-2.610;2023-11-19T08:47:15;99753.43;;;10.64;100.00
55277;BME280;41136;51.478;-2.610;2023-11-19T08:49:40;99753.05;;;11.57;100.00
55277;BME280;41136;51.478;-2.610;2023-11-19T08:52:06;99756.74;;;11.75;100.00
55277;BME280;41136;51.478;-2.610;2023-11-19T08:54:31;99759.47;;;11.66;100.00
55277;BME280;41136;51.478;-2.610;2023-11-19T08:56:56;99759.72;;;11.69;100.00
55277;BME280;41136;51.478;-2.610;2023-11-19T08:59:22;99754.26;;;11.96;100.00
55277;BME280;41136;51.478;-2.610;2023-11-19T09:01:47;99756.14;;;11.69;100.00
55277;BME280;41136;51.478;-2.610;2023-11-19T09:04:13;99755.28;;;11.81;100.00
55277;BME280;41136;51.478;-2.610;2023-11-19T09:06:38;99755.47;;;11.77;100.00
55277;BME280;41136;51.478;-2.610;2023-11-19T09:09:04;99751.15;;;11.52;100.00
55277;BME280;41136;51.478;-2.610;2023-11-19T09:11:30;99745.56;;;11.42;100.00
55277;BME280;41136;51.478;-2.610;2023-11-19T09:13:55;99753.32;;;11.93;100.00
55277;BME280;41136;51.478;-2.610;2023-11-19T09:16:21;99744.91;;;11.94;100.00
55277;BME280;41136;51.478;-2.610;2023-11-19T09:18:46;99745.39;;;10.93;100.00
55277;BME280;41136;51.478;-2.610;2023-11-19T09:21:11;99741.27;;;11.03;100.00
55277;BME280;41136;51.478;-2.610;2023-11-19T09:23:37;99748.04;;;11.01;100.00
55277;BME280;41136;51.478;-2.610;2023-11-19T09:26:03;99742.31;;;11.51;100.00
55277;BME280;41136;51.478;-2.610;2023-11-19T09:28:27;99746.34;;;11.92;100.00
55277;BME280;41136;51.478;-2.610;2023-11-19T09:30:52;99740.27;;;11.74;100.00
55277;BME280;41136;51.478;-2.610;2023-11-19T09:33:18;99752.94;;;11.77;100.00
55277;BME280;41136;51.478;-2.610;2023-11-19T09:35:43;99747.43;;;11.29;100.00
55277;BME280;41136;51.478;-2.610;2023-11-19T09:38:08;99744.81;;;11.27;100.00
55277;BME280;41136;51.478;-2.610;2023-11-19T09:40:34;99750.11;;;11.67;100.00
55277;BME280;41136;51.478;-2.610;2023-11-19T09:42:59;99756.56;;;12.61;100.00
55277;BME280;41136;51.478;-2.610;2023-11-19T09:45:27;99755.59;;;11.62;100.00
55277;BME280;41136;51.478;-2.610;2023-11-19T09:47:51;99759.05;;;11.76;100.00
55277;BME280;41136;51.478;-2.610;2023-11-19T09:50:17;99753.36;;;11.41;100.00
55277;BME280;41136;51.478;-2.610;2023-11-19T09:52:42;99761.61;;;11.82;100.00
55277;BME280;41136;51.478;-2.610;2023-11-19T09:55:08;99755.26;;;12.17;100.00
55277;BME280;41136;51.478;-2.610;2023-11-19T09:57:35;99760.58;;;12.08;100.00
55277;BME280;41136;51.478;-2.610;2023-11-19T09:59:59;99750.51;;;12.24;100.00
55277;BME280;41136;51.478;-2.610;2023-11-19T10:02:24;99747.28;;;11.68;100.00
55277;BME280;41136;51.478;-2.610;2023-11-19T10:04:51;99748.46;;;11.70;100.00
55277;BME280;41136;51.478;-2.610;2023-11-19T10:07:15;99747.48;;;11.18;100.00
55277;BME280;41136;51.478;-2.610;2023-11-19T10:09:40;99758.54;;;11.49;100.00
55277;BME280;41136;51.478;-2.610;2023-11-19T10:12:06;99750.01;;;11.09;100.00
55277;BME280;41136;51.478;-2.610;2023-11-19T10:14:31;99757.43;;;11.46;100.00
55277;BME280;41136;51.478;-2.610;2023-11-19T10:16:57;99753.69;;;11.14;100.00
55277;BME280;41136;51.478;-2.610;2023-11-19T10:19:22;99759.04;;;11.06;100.00
55277;BME280;41136;51.478;-2.610;2023-11-19T10:21:47;99762.03;;;11.91;100.00
55277;BME280;41136;51.478;-2.610;2023-11-19T10:26:37;99756.23;;;10.97;100.00
55277;BME280;41136;51.478;-2.610;2023-11-19T10:29:03;99759.69;;;12.18;100.00
55277;BME280;41136;51.478;-2.610;2023-11-19T10:31:28;99763.90;;;12.13;100.00
55277;BME280;41136;51.478;-2.610;2023-11-19T10:33:53;99760.21;;;11.73;100.00
55277;BME280;41136;51.478;-2.610;2023-11-19T10:36:18;99764.35;;;11.86;100.00
55277;BME280;41136;51.478;-2.610;2023-11-19T10:38:51;99753.45;;;11.53;100.00
55277;BME280;41136;51.478;-2.610;2023-11-19T10:41:10;99749.61;;;11.91;100.00
55277;BME280;41136;51.478;-2.610;2023-11-19T10:43:43;99755.88;;;11.58;100.00
55277;BME280;41136;51.478;-2.610;2023-11-19T10:46:09;99758.27;;;12.15;100.00
55277;BME280;41136;51.478;-2.610;2023-11-19T10:48:25;99755.48;;;12.02;100.00
55277;BME280;41136;51.478;-2.610;2023-11-19T10:50:53;99754.58;;;12.09;100.00
55277;BME280;41136;51.478;-2.610;2023-11-19T10:53:18;99756.89;;;11.70;100.00
55277;BME280;41136;51.478;-2.610;2023-11-19T10:55:43;99750.61;;;12.03;100.00
55277;BME280;41136;51.478;-2.610;2023-11-19T10:58:07;99761.43;;;11.90;100.00
55277;BME280;41136;51.478;-2.610;2023-11-19T11:00:38;99758.34;;;11.99;100.00
55277;BME280;41136;51.478;-2.610;2023-11-19T11:03:01;99762.66;;;12.61;100.00
55277;BME280;41136;51.478;-2.610;2023-11-19T11:05:25;99758.74;;;11.93;100.00
55277;BME280;41136;51.478;-2.610;2023-11-19T11:07:49;99758.57;;;12.50;100.00
55277;BME280;41136;51.478;-2.610;2023-11-19T11:10:14;99752.04;;;12.35;100.00
55277;BME280;41136;51.478;-2.610;2023-11-19T11:12:40;99763.81;;;12.49;100.00
55277;BME280;41136;51.478;-2.610;2023-11-19T11:15:06;99750.55;;;11.82;100.00
55277;BME280;41136;51.478;-2.610;2023-11-19T11:17:31;99749.94;;;12.33;100.00
55277;BME280;41136;51.478;-2.610;2023-11-19T11:19:55;99746.78;;;12.24;100.00
55277;BME280;41136;51.478;-2.610;2023-11-19T11:22:21;99753.41;;;12.15;100.00
55277;BME280;41136;51.478;-2.610;2023-11-19T11:25:02;99749.37;;;12.41;100.00
55277;BME280;41136;51.478;-2.610;2023-11-19T11:27:23;99752.02;;;12.12;100.00
55277;BME280;41136;51.478;-2.610;2023-11-19T11:29:41;99749.01;;;11.56;100.00
55277;BME280;41136;51.478;-2.610;2023-11-19T11:32:08;99757.89;;;11.68;100.00
55277;BME280;41136;51.478;-2.610;2023-11-19T11:34:40;99754.39;;;11.77;100.00
55277;BME280;41136;51.478;-2.610;2023-11-19T11:37:01;99753.38;;;11.51;100.00
55277;BME280;41136;51.478;-2.610;2023-11-19T11:39:17;99757.65;;;12.07;100.00
55277;BME280;41136;51.478;-2.610;2023-11-19T11:41:42;99758.26;;;11.20;100.00
55277;BME280;41136;51.478;-2.610;2023-11-19T11:44:08;99760.09;;;11.34;100.00
55277;BME280;41136;51.478;-2.610;2023-11-19T11:49:00;99754.58;;;11.39;100.00
55277;BME280;41136;51.478;-2.610;2023-11-19T11:53:51;99758.08;;;11.44;100.00
55277;BME280;41136;51.478;-2.610;2023-11-19T11:56:15;99750.56;;;11.44;100.00
55277;BME280;41136;51.478;-2.610;2023-11-19T11:58:41;99757.88;;;11.44;100.00
55277;BME280;41136;51.478;-2.610;2023-11-19T12:01:06;99752.80;;;11.15;100.00
55277;BME280;41136;51.478;-2.610;2023-11-19T12:03:39;99746.92;;;11.98;100.00
55277;BME280;41136;51.478;-2.610;2023-11-19T12:05:57;99758.50;;;11.46;100.00
55277;BME280;41136;51.478;-2.610;2023-11-19T12:08:25;99757.05;;;10.99;100.00
55277;BME280;41136;51.478;-2.610;2023-11-19T12:10:48;99753.17;;;11.44;100.00
55277;BME280;41136;51.478;-2.610;2023-11-19T12:13:13;99746.42;;;11.14;100.00
55277;BME280;41136;51.478;-2.610;2023-11-19T12:18:03;99755.57;;;11.11;100.00
55277;BME280;41136;51.478;-2.610;2023-11-19T12:20:33;99742.54;;;11.02;100.00
55277;BME280;41136;51.478;-2.610;2023-11-19T12:22:54;99749.91;;;10.78;100.00
55277;BME280;41136;51.478;-2.610;2023-11-19T12:25:20;99751.40;;;11.42;100.00
55277;BME280;41136;51.478;-2.610;2023-11-19T12:27:45;99752.20;;;11.37;100.00
55277;BME280;41136;51.478;-2.610;2023-11-19T12:30:10;99754.11;;;11.28;100.00
55277;BME280;41136;51.478;-2.610;2023-11-19T12:32:39;99766.32;;;10.96;100.00
55277;BME280;41136;51.478;-2.610;2023-11-19T12:35:00;99761.86;;;10.80;100.00
55277;BME280;41136;51.478;-2.610;2023-11-19T12:37:26;99751.97;;;11.32;100.00
55277;BME280;41136;51.478;-2.610;2023-11-19T12:39:51;99755.34;;;10.67;100.00
55277;BME280;41136;51.478;-2.610;2023-11-19T12:42:17;99757.44;;;10.95;100.00
55277;BME280;41136;51.478;-2.610;2023-11-19T12:47:08;99751.55;;;10.84;100.00
55277;BME280;41136;51.478;-2.610;2023-11-19T12:49:33;99752.10;;;11.00;100.00
55277;BME280;41136;51.478;-2.610;2023-11-19T12:51:59;99738.89;;;10.70;100.00
55277;BME280;41136;51.478;-2.610;2023-11-19T12:54:32;99747.70;;;10.51;100.00
55277;BME280;41136;51.478;-2.610;2023-11-19T12:56:52;99743.72;;;10.94;100.00